Time;durP1;ratioP1;P1;durP2;ratioP2;P2;SDS_P1;SDS_P2;PMS_P1;PMS_P2;Temp;Humidity;BMP_temperature;BMP_pressure;BME280_temperature;BME280_humidity;BME280_pressure;Samples;Min_cycle;Max_cycle;Signal;HPM_P1;HPM_P2
2020/12/17 00:01:55;;;;;;;24.15;17.15;;;6.70;99.90;;;;;;5094453;28;20216;-82
2020/12/17 00:04:21;;;;;;;24.27;16.40;;;6.70;99.90;;;;;;5094246;28;20288;-82
2020/12/17 00:06:47;;;;;;;24.30;15.82;;;6.80;99.90;;;;;;5094424;28;20267;-81
2020/12/17 00:09:13;;;;;;;22.70;16.10;;;6.90;99.90;;;;;;5094576;28;20185;-83
2020/12/17 00:11:40;;;;;;;26.58;16.38;;;6.90;99.90;;;;;;5094442;28;20541;-83
2020/12/17 00:14:06;;;;;;;21.08;15.55;;;7.00;99.90;;;;;;5097918;28;20279;-83
2020/12/17 00:16:32;;;;;;;21.97;15.23;;;7.00;99.90;;;;;;5094038;28;20268;-82
2020/12/17 00:18:58;;;;;;;19.80;14.27;;;7.10;99.90;;;;;;5094003;28;20859;-83
2020/12/17 00:21:24;;;;;;;22.50;15.60;;;7.10;99.90;;;;;;5094201;28;20478;-83
2020/12/17 00:23:50;;;;;;;23.87;14.90;;;7.20;99.90;;;;;;5094095;28;20446;-83
2020/12/17 00:26:16;;;;;;;22.70;16.37;;;7.20;99.90;;;;;;5088128;28;20505;-83
2020/12/17 00:28:43;;;;;;;18.40;14.63;;;7.20;99.90;;;;;;5094090;28;20540;-83
2020/12/17 00:31:09;;;;;;;22.35;15.40;;;7.20;99.90;;;;;;5093860;28;20546;-82
2020/12/17 00:33:35;;;;;;;23.38;17.13;;;7.20;99.90;;;;;;5094219;28;20264;-83
2020/12/17 00:36:01;;;;;;;20.13;14.73;;;7.30;99.90;;;;;;5093986;28;20272;-83
2020/12/17 00:38:27;;;;;;;18.02;14.07;;;7.30;99.90;;;;;;5093693;28;20447;-83
2020/12/17 00:40:53;;;;;;;17.97;14.17;;;7.20;99.90;;;;;;5093795;28;20753;-83
2020/12/17 00:43:19;;;;;;;19.50;14.37;;;7.30;99.90;;;;;;5093625;28;20483;-83
2020/12/17 00:45:46;;;;;;;21.67;16.10;;;7.30;99.90;;;;;;5093482;28;20787;-82
2020/12/17 00:48:12;;;;;;;21.40;15.07;;;7.30;99.90;;;;;;5093421;28;20478;-83
2020/12/17 00:50:38;;;;;;;20.17;14.63;;;7.30;99.90;;;;;;5093402;28;20181;-83
2020/12/17 00:53:04;;;;;;;16.47;11.73;;;7.30;99.90;;;;;;5093417;28;20313;-82
2020/12/17 00:55:30;;;;;;;18.80;13.57;;;7.30;99.90;;;;;;5093306;28;20474;-83
2020/12/17 00:57:56;;;;;;;20.60;13.43;;;7.30;99.90;;;;;;5093443;28;20449;-82
2020/12/17 01:00:22;;;;;;;16.95;13.50;;;7.30;99.90;;;;;;5093205;28;21024;-82
2020/12/17 01:02:48;;;;;;;18.77;12.97;;;7.30;99.90;;;;;;5093495;28;20200;-81
2020/12/17 01:05:14;;;;;;;17.10;14.20;;;7.30;99.90;;;;;;5093066;28;21023;-82
2020/12/17 01:07:41;;;;;;;18.80;14.37;;;7.30;99.90;;;;;;5093288;28;20303;-82
2020/12/17 01:10:07;;;;;;;18.80;13.77;;;7.40;99.90;;;;;;5093376;28;20962;-83
2020/12/17 01:12:33;;;;;;;18.87;13.60;;;7.40;99.90;;;;;;5091387;28;20271;-82
2020/12/17 01:14:59;;;;;;;17.80;14.00;;;7.40;99.90;;;;;;5091606;28;20443;-82
2020/12/17 01:17:25;;;;;;;21.73;14.23;;;7.40;99.90;;;;;;5093320;28;20532;-82
2020/12/17 01:19:52;;;;;;;18.10;13.93;;;7.40;99.90;;;;;;5093414;28;20511;-82
2020/12/17 01:22:17;;;;;;;17.33;13.83;;;7.40;99.90;;;;;;5088425;28;20478;-83
2020/12/17 01:24:44;;;;;;;16.67;12.83;;;7.40;99.90;;;;;;5095370;28;20659;-83
2020/12/17 01:27:10;;;;;;;16.75;12.43;;;7.40;99.90;;;;;;5093062;28;20443;-83
2020/12/17 01:29:36;;;;;;;19.57;12.83;;;7.40;99.90;;;;;;5092201;28;20218;-85
2020/12/17 01:32:02;;;;;;;19.87;13.17;;;7.40;99.90;;;;;;5082530;28;20964;-83
2020/12/17 01:34:28;;;;;;;19.70;13.45;;;7.40;99.90;;;;;;5093007;28;20529;-86
2020/12/17 01:36:55;;;;;;;17.50;13.70;;;7.40;99.90;;;;;;5099269;28;20271;-85
2020/12/17 01:39:22;;;;;;;19.00;13.40;;;7.40;99.90;;;;;;5092583;28;20569;-84
2020/12/17 01:41:48;;;;;;;18.63;14.63;;;7.40;99.90;;;;;;5093102;28;20275;-84
2020/12/17 01:44:14;;;;;;;18.98;14.55;;;7.40;99.90;;;;;;5092979;28;20276;-85
2020/12/17 01:46:40;;;;;;;16.45;13.95;;;7.40;99.90;;;;;;5093132;28;20780;-80
2020/12/17 01:49:07;;;;;;;19.25;13.93;;;7.40;99.90;;;;;;5092548;28;20770;-80
2020/12/17 01:51:33;;;;;;;17.48;13.70;;;7.40;99.90;;;;;;5092978;28;20326;-80
2020/12/17 01:54:00;;;;;;;15.32;12.48;;;7.40;99.90;;;;;;5092875;28;20268;-79
2020/12/17 01:56:28;;;;;;;16.77;13.85;;;7.40;99.90;;;;;;5092821;28;20271;-83
2020/12/17 01:58:57;;;;;;;18.92;13.75;;;7.40;99.90;;;;;;5092756;28;20199;-84
2020/12/17 02:01:25;;;;;;;19.67;13.80;;;7.40;99.90;;;;;;5092260;28;20185;-84
2020/12/17 02:03:54;;;;;;;17.13;13.93;;;7.40;99.90;;;;;;5092749;28;20493;-83
2020/12/17 02:06:20;;;;;;;19.20;14.03;;;7.40;99.90;;;;;;5092913;28;20533;-82
2020/12/17 02:08:50;;;;;;;17.40;12.30;;;7.30;99.90;;;;;;5092499;28;20478;-83
2020/12/17 02:11:17;;;;;;;19.30;13.50;;;7.30;99.90;;;;;;5092595;28;20453;-82
2020/12/17 02:13:45;;;;;;;16.27;13.33;;;7.30;99.90;;;;;;5095179;28;20208;-82
2020/12/17 02:16:12;;;;;;;17.75;13.80;;;7.30;99.90;;;;;;5092809;28;20953;-83
2020/12/17 02:18:38;;;;;;;18.40;13.20;;;7.20;99.90;;;;;;5092521;28;20185;-83
2020/12/17 02:21:04;;;;;;;15.80;13.13;;;7.20;99.90;;;;;;5092689;28;21089;-83
2020/12/17 02:23:30;;;;;;;17.27;14.30;;;7.10;99.90;;;;;;5092453;28;20689;-83
2020/12/17 02:25:57;;;;;;;21.33;14.43;;;6.90;99.90;;;;;;5084148;28;20185;-83
2020/12/17 02:28:23;;;;;;;18.45;14.15;;;6.80;99.90;;;;;;5092660;28;20478;-83
2020/12/17 02:30:50;;;;;;;18.20;14.38;;;6.60;99.90;;;;;;5092527;28;20275;-83
2020/12/17 02:33:16;;;;;;;18.63;13.70;;;6.50;99.90;;;;;;5092484;28;20237;-83
2020/12/17 02:35:43;;;;;;;17.45;13.20;;;6.40;99.90;;;;;;5092455;28;20189;-83
2020/12/17 02:38:09;;;;;;;17.88;13.60;;;6.30;99.90;;;;;;5092570;28;20181;-83
2020/12/17 02:40:36;;;;;;;17.55;13.25;;;6.20;99.90;;;;;;5092138;28;20255;-83
2020/12/17 02:43:03;;;;;;;19.45;13.98;;;6.20;99.90;;;;;;5092400;28;20671;-84
2020/12/17 02:45:29;;;;;;;19.58;14.70;;;6.10;99.90;;;;;;5092463;28;20637;-83
2020/12/17 02:47:55;;;;;;;20.35;15.32;;;6.00;99.90;;;;;;5092433;28;20295;-82
2020/12/17 02:50:22;;;;;;;21.30;14.73;;;6.00;99.90;;;;;;5092339;28;20283;-84
2020/12/17 02:52:48;;;;;;;19.90;13.63;;;6.00;99.90;;;;;;5092232;28;20271;-83
2020/12/17 02:55:14;;;;;;;22.08;15.07;;;6.00;99.90;;;;;;5092525;28;20653;-83
2020/12/17 02:57:40;;;;;;;19.23;14.57;;;6.00;99.90;;;;;;5092386;28;20314;-83
2020/12/17 03:00:09;;;;;;;21.77;14.73;;;5.90;99.90;;;;;;5092342;28;20543;-83
2020/12/17 03:02:35;;;;;;;22.20;14.90;;;5.90;99.90;;;;;;5092219;28;20279;-84
2020/12/17 03:05:01;;;;;;;23.75;15.27;;;5.90;99.90;;;;;;5092151;28;20267;-83
2020/12/17 03:07:27;;;;;;;22.98;16.20;;;5.90;99.90;;;;;;5092001;28;20209;-85
2020/12/17 03:09:53;;;;;;;23.58;15.43;;;5.80;99.90;;;;;;5092045;28;20701;-83
2020/12/17 03:12:19;;;;;;;19.35;14.20;;;5.80;99.90;;;;;;5093703;28;20608;-75
2020/12/17 03:14:45;;;;;;;22.00;15.23;;;5.80;99.90;;;;;;5095864;28;20224;-82
2020/12/17 03:17:12;;;;;;;22.97;16.07;;;5.80;99.90;;;;;;5095920;28;20485;-82
2020/12/17 03:19:38;;;;;;;21.75;15.02;;;5.80;99.90;;;;;;5095682;28;20537;-82
2020/12/17 03:22:04;;;;;;;22.97;14.97;;;5.70;99.90;;;;;;5095638;28;20199;-82
2020/12/17 03:24:30;;;;;;;25.52;16.10;;;5.70;99.90;;;;;;5094159;28;20448;-83
2020/12/17 03:26:56;;;;;;;20.03;14.90;;;5.70;99.90;;;;;;5089121;28;20271;-83
2020/12/17 03:29:22;;;;;;;24.30;16.30;;;5.70;99.90;;;;;;5095398;28;20514;-84
2020/12/17 03:31:48;;;;;;;20.63;15.67;;;5.70;99.90;;;;;;5095414;28;20930;-84
2020/12/17 03:34:15;;;;;;;24.48;15.93;;;5.70;99.90;;;;;;5095506;28;20558;-83
2020/12/17 03:36:41;;;;;;;21.20;14.43;;;5.70;99.90;;;;;;5095250;28;20272;-83
2020/12/17 03:39:07;;;;;;;23.65;16.08;;;5.60;99.90;;;;;;5095329;28;20247;-82
2020/12/17 03:41:33;;;;;;;20.75;14.93;;;5.60;99.90;;;;;;5095449;28;20617;-83
2020/12/17 03:43:59;;;;;;;20.00;14.60;;;5.50;99.90;;;;;;5095404;28;20216;-82
2020/12/17 03:46:25;;;;;;;24.30;17.40;;;5.50;99.90;;;;;;5095258;28;20533;-82
2020/12/17 03:48:51;;;;;;;20.20;15.05;;;5.50;99.90;;;;;;5095073;28;20479;-82
2020/12/17 03:51:17;;;;;;;20.58;15.68;;;5.50;99.90;;;;;;5094982;28;20290;-84
2020/12/17 03:53:43;;;;;;;23.98;15.55;;;5.50;99.90;;;;;;5078727;28;20279;-82
2020/12/17 03:56:09;;;;;;;20.98;15.38;;;5.50;99.90;;;;;;5095260;28;20267;-83
2020/12/17 03:58:35;;;;;;;19.27;14.40;;;5.40;99.90;;;;;;5095074;28;20230;-83
2020/12/17 04:01:01;;;;;;;24.07;16.27;;;5.50;99.90;;;;;;5095027;28;20953;-83
2020/12/17 04:03:27;;;;;;;22.90;16.85;;;5.50;99.90;;;;;;5094804;28;20534;-82
2020/12/17 04:05:53;;;;;;;23.13;16.03;;;5.50;99.90;;;;;;5094869;28;20184;-82
2020/12/17 04:08:20;;;;;;;22.17;16.20;;;5.50;99.90;;;;;;5094665;28;20513;-82
2020/12/17 04:10:46;;;;;;;23.23;15.65;;;5.50;99.90;;;;;;5094847;28;20907;-82
2020/12/17 04:13:12;;;;;;;18.70;14.80;;;5.40;99.90;;;;;;5094772;28;20277;-82
2020/12/17 04:15:38;;;;;;;24.67;15.00;;;5.40;99.90;;;;;;5094611;28;20228;-83
2020/12/17 04:18:04;;;;;;;23.23;15.47;;;5.40;99.90;;;;;;5094684;28;20284;-83
2020/12/17 04:20:30;;;;;;;24.00;16.20;;;5.40;99.90;;;;;;5094390;28;20862;-83
2020/12/17 04:22:56;;;;;;;19.93;16.00;;;5.40;99.90;;;;;;5094590;28;20223;-83
2020/12/17 04:25:23;;;;;;;23.00;16.23;;;5.40;99.90;;;;;;5085678;28;20463;-83
2020/12/17 04:27:49;;;;;;;23.08;14.75;;;5.40;99.90;;;;;;5094429;28;20470;-83
2020/12/17 04:30:15;;;;;;;26.75;16.73;;;5.40;99.90;;;;;;5094569;28;20271;-83
2020/12/17 04:32:41;;;;;;;25.03;15.13;;;5.30;99.90;;;;;;5094224;28;20192;-83
2020/12/17 04:35:07;;;;;;;23.58;15.25;;;5.30;99.90;;;;;;5094315;28;20453;-82
2020/12/17 04:37:33;;;;;;;22.52;15.43;;;5.40;99.90;;;;;;5094262;28;20275;-82
2020/12/17 04:39:59;;;;;;;21.60;15.93;;;5.40;99.90;;;;;;5094182;28;20722;-82
2020/12/17 04:42:26;;;;;;;22.97;15.77;;;5.40;99.90;;;;;;5094175;28;20251;-82
2020/12/17 04:44:54;;;;;;;20.17;15.50;;;5.30;99.90;;;;;;5094214;28;20587;-82
2020/12/17 04:47:20;;;;;;;22.63;15.60;;;5.30;99.90;;;;;;5093793;28;20695;-81
2020/12/17 04:49:49;;;;;;;28.42;18.70;;;5.30;99.90;;;;;;5093928;28;20238;-82
2020/12/17 04:52:15;;;;;;;25.17;17.45;;;5.30;99.90;;;;;;5094062;28;20185;-82
2020/12/17 04:54:41;;;;;;;23.30;15.32;;;5.30;99.90;;;;;;5094035;28;20272;-83
2020/12/17 04:57:09;;;;;;;23.08;15.52;;;5.20;99.90;;;;;;5093795;28;20665;-83
2020/12/17 04:59:44;;;;;;;25.88;16.38;;;5.20;99.90;;;;;;5093750;28;20275;-82
2020/12/17 05:02:11;;;;;;;24.02;16.90;;;5.20;99.90;;;;;;5093793;28;20208;-83
2020/12/17 05:04:38;;;;;;;24.42;16.70;;;5.10;99.90;;;;;;5093698;28;20275;-82
2020/12/17 05:07:09;;;;;;;23.52;15.52;;;5.20;99.90;;;;;;5093783;28;20279;-82
2020/12/17 05:09:36;;;;;;;22.70;15.82;;;5.20;99.90;;;;;;5093565;28;20299;-83
2020/12/17 05:12:02;;;;;;;21.05;15.10;;;5.10;99.90;;;;;;5093590;28;20215;-83
2020/12/17 05:14:29;;;;;;;24.30;16.20;;;5.10;99.90;;;;;;5093413;28;20613;-83
2020/12/17 05:16:56;;;;;;;25.38;15.98;;;5.10;99.90;;;;;;5093788;28;20188;-82
2020/12/17 05:19:23;;;;;;;22.67;16.10;;;5.10;99.90;;;;;;5093514;28;20195;-82
2020/12/17 05:21:50;;;;;;;24.85;16.15;;;5.10;99.90;;;;;;5093534;28;20181;-83
2020/12/17 05:24:16;;;;;;;25.05;15.90;;;5.10;99.90;;;;;;5093442;28;20264;-83
2020/12/17 05:26:42;;;;;;;23.40;16.10;;;5.10;99.90;;;;;;5085043;28;20296;-81
2020/12/17 05:29:11;;;;;;;24.25;15.77;;;5.00;99.90;;;;;;5090182;28;20219;-81
2020/12/17 05:31:37;;;;;;;24.17;16.52;;;5.00;99.90;;;;;;5093192;28;20289;-81
2020/12/17 05:34:05;;;;;;;21.80;15.50;;;5.00;99.90;;;;;;5093169;28;20652;-83
2020/12/17 05:36:32;;;;;;;24.75;16.35;;;5.00;99.90;;;;;;5092168;28;20529;-82
2020/12/17 05:39:08;;;;;;;28.38;17.17;;;4.90;99.90;;;;;;5092637;28;20185;-82
2020/12/17 05:41:36;;;;;;;25.40;16.08;;;4.90;99.90;;;;;;5092932;28;20237;-81
2020/12/17 05:44:09;;;;;;;24.02;16.50;;;4.90;99.90;;;;;;5093190;28;20283;-81
2020/12/17 05:46:36;;;;;;;26.50;17.10;;;4.90;99.90;;;;;;5092965;28;20185;-82
2020/12/17 05:49:11;;;;;;;30.00;19.35;;;4.90;99.90;;;;;;5092877;28;20273;-82
2020/12/17 05:51:38;;;;;;;28.75;17.40;;;4.90;99.90;;;;;;5092765;28;20180;-83
2020/12/17 05:54:07;;;;;;;25.38;17.50;;;4.90;99.90;;;;;;5092742;28;20648;-82
2020/12/17 05:56:33;;;;;;;30.80;17.67;;;4.90;99.90;;;;;;5092859;28;20272;-82
2020/12/17 05:59:04;;;;;;;28.90;17.10;;;4.90;99.90;;;;;;5092806;28;20271;-83
2020/12/17 06:01:30;;;;;;;26.38;15.40;;;4.90;99.90;;;;;;5092869;28;20181;-83
2020/12/17 06:03:56;;;;;;;27.48;17.08;;;4.90;99.90;;;;;;5092551;28;20284;-83
2020/12/17 06:06:24;;;;;;;23.13;16.58;;;4.90;99.90;;;;;;5092762;28;20224;-83
2020/12/17 06:08:51;;;;;;;28.10;17.45;;;4.90;99.90;;;;;;5092413;28;20251;-82
2020/12/17 06:11:23;;;;;;;26.00;18.45;;;4.90;99.90;;;;;;5092641;28;20195;-82
2020/12/17 06:13:54;;;;;;;24.42;17.25;;;4.80;99.90;;;;;;5097955;28;20310;-83
2020/12/17 06:16:22;;;;;;;25.67;16.50;;;4.80;99.90;;;;;;5092496;28;20184;-83
2020/12/17 06:18:51;;;;;;;22.65;16.30;;;4.80;99.90;;;;;;5092516;28;20184;-82
2020/12/17 06:21:17;;;;;;;28.70;16.55;;;4.70;99.90;;;;;;5092400;28;20722;-82
2020/12/17 06:23:44;;;;;;;24.77;16.27;;;4.70;99.90;;;;;;5092532;28;20275;-82
2020/12/17 06:26:11;;;;;;;28.52;17.02;;;4.70;99.90;;;;;;5088433;28;20623;-82
2020/12/17 06:28:43;;;;;;;29.38;17.90;;;4.70;99.90;;;;;;5092119;28;20712;-82
2020/12/17 06:31:13;;;;;;;29.23;16.50;;;4.60;99.90;;;;;;5092322;28;20722;-81
2020/12/17 06:33:39;;;;;;;24.33;17.50;;;4.60;99.90;;;;;;5092324;28;20188;-81
2020/12/17 06:36:12;;;;;;;25.57;17.97;;;4.60;99.90;;;;;;5092457;28;20181;-81
2020/12/17 06:38:39;;;;;;;33.28;18.35;;;4.60;99.90;;;;;;5092265;28;21012;-83
2020/12/17 06:41:17;;;;;;;29.02;16.90;;;4.60;99.90;;;;;;5092063;28;20307;-83
2020/12/17 06:43:43;;;;;;;25.92;17.45;;;4.60;99.90;;;;;;5092297;28;20220;-85
2020/12/17 06:46:34;;;;;;;26.88;19.00;;;4.50;99.90;;;;;;5092144;28;20222;-83
2020/12/17 06:49:01;;;;;;;30.15;19.25;;;4.60;99.90;;;;;;5096223;28;20209;-83
2020/12/17 06:51:47;;;;;;;26.70;17.27;;;4.60;99.90;;;;;;5096056;28;20263;-83
2020/12/17 06:54:33;;;;;;;26.85;16.88;;;4.60;99.90;;;;;;5091239;28;20192;-84
2020/12/17 06:57:04;;;;;;;25.45;17.35;;;4.60;99.90;;;;;;5095231;28;20208;-84
2020/12/17 06:59:31;;;;;;;27.33;16.23;;;4.60;99.90;;;;;;5096004;28;20604;-85
2020/12/17 07:01:57;;;;;;;26.70;16.98;;;4.60;99.90;;;;;;5095875;28;20276;-85
2020/12/17 07:04:44;;;;;;;25.67;17.48;;;4.60;99.90;;;;;;5095582;28;20219;-84
2020/12/17 07:07:28;;;;;;;23.95;17.50;;;4.60;99.90;;;;;;5090685;28;20274;-85
2020/12/17 07:09:55;;;;;;;24.70;16.73;;;4.60;99.90;;;;;;5095859;28;20303;-84
2020/12/17 07:12:42;;;;;;;28.60;17.95;;;4.60;99.90;;;;;;5095579;28;20189;-84
2020/12/17 07:15:41;;;;;;;35.83;17.55;;;4.50;99.90;;;;;;5095600;28;20181;-85
2020/12/17 07:18:24;;;;;;;29.30;17.45;;;4.60;99.90;;;;;;5095463;28;20283;-85
2020/12/17 07:20:52;;;;;;;29.80;17.13;;;4.60;99.90;;;;;;5095350;28;20189;-85
2020/12/17 07:23:20;;;;;;;26.52;18.33;;;4.50;99.90;;;;;;5095236;28;20208;-85
2020/12/17 07:25:51;;;;;;;26.10;16.58;;;4.60;99.90;;;;;;5091257;28;20192;-85
2020/12/17 07:28:24;;;;;;;28.27;17.05;;;4.50;99.90;;;;;;5095111;28;20540;-81
2020/12/17 07:30:52;;;;;;;29.63;17.85;;;4.60;99.90;;;;;;5095079;28;20620;-85
2020/12/17 07:33:40;;;;;;;38.65;19.90;;;4.60;99.90;;;;;;5095165;28;20193;-85
2020/12/17 07:36:07;;;;;;;35.45;19.15;;;4.70;99.90;;;;;;5095125;28;20647;-85
2020/12/17 07:38:34;;;;;;;35.92;19.48;;;4.80;99.90;;;;;;5094976;28;20280;-83
2020/12/17 07:41:00;;;;;;;31.52;18.23;;;4.80;99.90;;;;;;5094811;28;20299;-88
2020/12/17 07:43:39;;;;;;;38.97;20.20;;;4.90;99.90;;;;;;5095231;28;20264;-84
2020/12/17 07:46:05;;;;;;;35.33;19.17;;;5.00;99.90;;;;;;5095051;28;20279;-84
2020/12/17 07:48:34;;;;;;;35.53;18.67;;;5.10;99.90;;;;;;5094795;28;20711;-84
2020/12/17 07:51:00;;;;;;;28.65;17.75;;;5.20;99.90;;;;;;5094820;28;20551;-84
2020/12/17 07:53:26;;;;;;;26.20;17.95;;;5.30;99.90;;;;;;5100011;28;20275;-84
2020/12/17 07:55:53;;;;;;;29.88;18.40;;;5.40;99.90;;;;;;5104284;28;20189;-86
2020/12/17 07:58:19;;;;;;;31.60;18.90;;;5.50;99.90;;;;;;5102883;28;20233;-86
2020/12/17 08:00:46;;;;;;;24.05;17.23;;;5.70;99.90;;;;;;5105572;28;20226;-86
2020/12/17 08:03:12;;;;;;;24.30;16.33;;;5.80;99.90;;;;;;5109323;28;20181;-86
2020/12/17 08:05:39;;;;;;;30.20;19.35;;;6.00;99.90;;;;;;5094575;28;20326;-88
2020/12/17 08:08:05;;;;;;;24.42;15.40;;;6.10;99.90;;;;;;5094532;28;20652;-85
2020/12/17 08:10:37;;;;;;;25.88;17.30;;;6.20;99.90;;;;;;5094697;28;20669;-80
2020/12/17 08:13:03;;;;;;;23.65;16.58;;;6.30;99.90;;;;;;5099876;28;20212;-84
2020/12/17 08:15:29;;;;;;;23.70;16.77;;;6.50;99.90;;;;;;5092651;28;20643;-83
2020/12/17 08:17:56;;;;;;;26.10;16.37;;;6.50;99.90;;;;;;5094184;28;20537;-86
2020/12/17 08:20:25;;;;;;;25.83;16.70;;;6.70;99.90;;;;;;5093884;28;20478;-87
2020/12/17 08:22:52;;;;;;;29.80;18.15;;;6.70;99.90;;;;;;5094435;28;20445;-85
2020/12/17 08:25:18;;;;;;;26.77;15.88;;;6.70;99.90;;;;;;5090026;28;20216;-82
2020/12/17 08:27:45;;;;;;;36.38;18.45;;;6.70;99.90;;;;;;5093317;28;20221;-82
2020/12/17 08:30:12;;;;;;;22.15;15.82;;;6.80;99.90;;;;;;5092322;28;20180;-82
2020/12/17 08:32:44;;;;;;;25.85;16.52;;;6.80;99.90;;;;;;5102411;28;20225;-82
2020/12/17 08:35:11;;;;;;;29.60;19.77;;;6.70;99.90;;;;;;5103180;28;20214;-85
2020/12/17 08:37:42;;;;;;;23.07;16.33;;;6.80;99.90;;;;;;5103105;28;20526;-81
2020/12/17 08:40:10;;;;;;;24.98;15.85;;;6.80;99.90;;;;;;5088794;28;20562;-78
2020/12/17 08:42:37;;;;;;;27.15;17.58;;;6.80;99.90;;;;;;5088555;28;20235;-78
2020/12/17 08:45:05;;;;;;;26.05;17.15;;;6.80;99.90;;;;;;5090507;28;20275;-79
2020/12/17 08:47:33;;;;;;;23.75;15.88;;;6.80;99.90;;;;;;5091800;28;20269;-80
2020/12/17 08:50:01;;;;;;;25.67;16.80;;;6.80;99.90;;;;;;5093514;28;20303;-79
2020/12/17 08:52:28;;;;;;;23.95;16.92;;;6.90;99.90;;;;;;5093684;28;20552;-79
2020/12/17 08:55:01;;;;;;;23.75;17.05;;;6.80;99.90;;;;;;5093549;28;20276;-80
2020/12/17 08:57:27;;;;;;;27.63;16.38;;;6.80;99.90;;;;;;5083604;28;20180;-81
2020/12/17 08:59:53;;;;;;;21.52;15.13;;;6.90;99.90;;;;;;5096310;28;20271;-79
2020/12/17 09:02:23;;;;;;;28.20;15.93;;;;;;;;;;5104110;28;20275;-80
2020/12/17 09:04:54;;;;;;;24.88;15.63;;;7.00;99.90;;;;;;5113150;28;20278;-80
2020/12/17 09:07:24;;;;;;;25.90;16.33;;;7.00;99.90;;;;;;5093556;28;20272;-80
2020/12/17 09:09:51;;;;;;;24.20;16.05;;;7.00;99.90;;;;;;5093014;28;20244;-80
2020/12/17 09:12:28;;;;;;;21.88;16.65;;;7.00;99.90;;;;;;5089269;28;20579;-80
2020/12/17 09:14:54;;;;;;;25.17;16.00;;;7.10;99.90;;;;;;5092581;28;20183;-80
2020/12/17 09:17:20;;;;;;;20.20;13.90;;;7.10;99.90;;;;;;5093162;28;20189;-80
2020/12/17 09:19:48;;;;;;;23.25;15.00;;;7.20;99.90;;;;;;5093046;28;20275;-81
2020/12/17 09:22:15;;;;;;;23.17;15.97;;;7.20;99.90;;;;;;5092799;28;20279;-80
2020/12/17 09:24:47;;;;;;;22.98;15.85;;;7.30;99.90;;;;;;5092729;28;20439;-80
2020/12/17 09:27:21;;;;;;;20.67;14.50;;;7.40;99.90;;;;;;5092895;28;20264;-80
2020/12/17 09:30:09;;;;;;;22.80;15.40;;;7.40;99.90;;;;;;5092686;28;20220;-80
2020/12/17 09:32:36;;;;;;;23.58;16.75;;;7.50;99.90;;;;;;5090884;28;20642;-80
2020/12/17 09:35:05;;;;;;;24.10;15.32;;;7.50;99.90;;;;;;5087805;28;20282;-80
2020/12/17 09:37:32;;;;;;;23.02;16.88;;;7.60;99.90;;;;;;5092647;28;20180;-80
2020/12/17 09:39:58;;;;;;;23.20;15.80;;;7.60;99.90;;;;;;5087891;28;20255;-80
2020/12/17 09:42:25;;;;;;;24.80;15.90;;;7.70;99.90;;;;;;5094984;28;20729;-80
2020/12/17 09:44:52;;;;;;;24.17;15.93;;;7.70;99.90;;;;;;5087807;28;20549;-80
2020/12/17 09:47:32;;;;;;;23.20;14.83;;;7.80;99.90;;;;;;5081919;28;20185;-80
2020/12/17 09:50:08;;;;;;;21.38;14.43;;;7.80;99.90;;;;;;5090652;28;20477;-79
2020/12/17 09:52:34;;;;;;;18.48;13.63;;;7.80;99.90;;;;;;5093680;28;20216;-80
2020/12/17 09:55:00;;;;;;;23.42;14.60;;;7.90;99.90;;;;;;5087611;28;20583;-80
2020/12/17 09:57:35;;;;;;;21.53;14.97;;;7.90;99.90;;;;;;5077010;28;20189;-80
2020/12/17 10:00:04;;;;;;;22.87;14.90;;;7.90;99.90;;;;;;5088933;28;20442;-79
2020/12/17 10:02:30;;;;;;;22.20;16.50;;;8.00;99.90;;;;;;5097257;28;20443;-79
2020/12/17 10:04:56;;;;;;;20.80;14.90;;;8.10;99.90;;;;;;5088371;28;20707;-83
2020/12/17 10:07:22;;;;;;;26.70;15.60;;;8.10;99.90;;;;;;5084698;28;20939;-80
2020/12/17 10:09:48;;;;;;;21.60;15.38;;;8.10;99.90;;;;;;5091871;28;20970;-81
2020/12/17 10:12:14;;;;;;;21.47;12.90;;;8.20;99.90;;;;;;5091993;28;20580;-82
2020/12/17 10:14:41;;;;;;;22.40;15.25;;;8.20;99.90;;;;;;5091373;28;20492;-80
2020/12/17 10:17:07;;;;;;;21.95;13.93;;;8.20;99.90;;;;;;5091306;28;20635;-88
2020/12/17 10:19:33;;;;;;;23.00;14.90;;;8.20;99.90;;;;;;5091278;28;20272;-85
2020/12/17 10:22:00;;;;;;;36.97;16.20;;;8.30;99.90;;;;;;5093112;28;20443;-76
2020/12/17 10:24:26;;;;;;;21.03;15.13;;;8.30;99.90;;;;;;5096062;28;20493;-80
2020/12/17 10:26:53;;;;;;;21.33;14.67;;;8.30;99.90;;;;;;5093142;28;20489;-76
2020/12/17 10:29:19;;;;;;;25.37;16.40;;;8.30;99.90;;;;;;5103379;28;20561;-75
2020/12/17 10:31:47;;;;;;;24.77;15.73;;;8.30;99.90;;;;;;5105162;28;20930;-75
2020/12/17 10:34:14;;;;;;;24.75;16.88;;;8.30;99.90;;;;;;5106469;28;20452;-75
2020/12/17 10:36:40;;;;;;;18.57;14.20;;;8.30;99.90;;;;;;5106490;28;20707;-77
2020/12/17 10:39:07;;;;;;;19.60;14.33;;;8.20;99.90;;;;;;5103374;28;20565;-76
2020/12/17 10:41:34;;;;;;;21.67;13.80;;;8.20;99.90;;;;;;5084471;28;20443;-76
2020/12/17 10:44:00;;;;;;;23.93;15.17;;;8.20;99.90;;;;;;5105623;28;20467;-75
2020/12/17 10:46:27;;;;;;;22.10;15.20;;;8.20;99.90;;;;;;5103085;28;20797;-75
2020/12/17 10:48:54;;;;;;;23.17;15.30;;;8.10;99.90;;;;;;5093532;28;20565;-75
2020/12/17 10:51:20;;;;;;;22.80;13.73;;;8.10;99.90;;;;;;5101218;28;20181;-75
2020/12/17 10:53:46;;;;;;;53.87;17.70;;;8.20;99.90;;;;;;5096100;28;20446;-75
2020/12/17 10:56:12;;;;;;;34.13;17.60;;;8.20;99.90;;;;;;5096651;28;20449;-75
2020/12/17 10:58:39;;;;;;;22.77;15.50;;;8.20;99.90;;;;;;5096435;28;20846;-75
2020/12/17 11:01:06;;;;;;;46.22;19.00;;;8.20;99.90;;;;;;5095892;28;20486;-75
2020/12/17 11:03:32;;;;;;;26.17;14.90;;;8.20;99.90;;;;;;5095583;28;20672;-75
2020/12/17 11:05:59;;;;;;;77.53;21.57;;;8.10;99.90;;;;;;5095623;28;20538;-75
2020/12/17 11:08:25;;;;;;;33.13;15.23;;;8.10;99.90;;;;;;5095477;28;20469;-75
2020/12/17 11:10:52;;;;;;;25.80;14.70;;;8.10;99.90;;;;;;5095458;28;20736;-77
2020/12/17 11:13:18;;;;;;;21.90;13.80;;;8.10;99.90;;;;;;5102867;28;20959;-76
2020/12/17 11:15:44;;;;;;;21.40;14.20;;;8.10;99.90;;;;;;5081200;28;20446;-76
2020/12/17 11:18:11;;;;;;;20.60;13.85;;;8.10;99.90;;;;;;5098749;28;20503;-76
2020/12/17 11:20:40;;;;;;;22.95;15.60;;;8.10;99.90;;;;;;5103685;28;20226;-77
2020/12/17 11:23:07;;;;;;;22.67;14.80;;;8.10;99.90;;;;;;5105713;28;20588;-77
2020/12/17 11:25:36;;;;;;;21.00;15.17;;;8.10;99.90;;;;;;5101699;28;20460;-76
2020/12/17 11:28:03;;;;;;;19.97;14.30;;;8.10;99.90;;;;;;5102024;28;20443;-76
2020/12/17 11:30:29;;;;;;;25.15;16.15;;;8.10;99.90;;;;;;5095189;28;20457;-76
2020/12/17 11:32:58;;;;;;;22.00;14.65;;;8.10;99.90;;;;;;5095053;28;20666;-76
2020/12/17 11:35:24;;;;;;;20.23;14.40;;;8.20;99.90;;;;;;5095102;28;20180;-76
2020/12/17 11:37:50;;;;;;;22.10;15.20;;;8.20;99.90;;;;;;5095097;28;20537;-76
2020/12/17 11:40:19;;;;;;;22.23;16.20;;;8.20;99.90;;;;;;5094883;28;20523;-76
2020/12/17 11:42:45;;;;;;;17.80;13.23;;;8.20;99.90;;;;;;5094916;28;20185;-76
2020/12/17 11:45:11;;;;;;;21.60;14.17;;;8.20;99.90;;;;;;5095044;28;20445;-76
2020/12/17 11:47:38;;;;;;;20.50;15.33;;;8.20;99.90;;;;;;5095055;28;20450;-78
2020/12/17 11:50:05;;;;;;;21.20;14.57;;;8.20;99.90;;;;;;5094885;28;20475;-76
2020/12/17 11:52:31;;;;;;;22.37;15.03;;;8.30;99.90;;;;;;5092987;28;20552;-76
2020/12/17 11:54:58;;;;;;;20.23;13.20;;;8.40;99.90;;;;;;5101561;28;20449;-76
2020/12/17 11:57:25;;;;;;;21.60;15.00;;;8.50;99.90;;;;;;5100398;28;20914;-76
2020/12/17 11:59:51;;;;;;;21.00;15.20;;;8.50;99.90;;;;;;5100298;28;20449;-77
2020/12/17 12:02:17;;;;;;;24.27;14.90;;;8.50;99.90;;;;;;5097804;28;20446;-75
2020/12/17 12:04:43;;;;;;;19.20;13.95;;;8.50;99.90;;;;;;5103718;28;20934;-76
2020/12/17 12:07:10;;;;;;;20.53;14.23;;;8.50;99.90;;;;;;5094368;28;20215;-75
2020/12/17 12:09:36;;;;;;;23.90;15.67;;;8.40;99.90;;;;;;5100004;28;20473;-76
2020/12/17 12:12:05;;;;;;;20.83;14.77;;;8.40;99.90;;;;;;5101734;28;20469;-75
2020/12/17 12:14:32;;;;;;;20.50;14.67;;;8.40;99.90;;;;;;5095705;28;20500;-76
2020/12/17 12:16:58;;;;;;;16.67;12.80;;;8.40;99.90;;;;;;5100670;28;20970;-76
2020/12/17 12:19:25;;;;;;;19.95;13.68;;;8.40;99.90;;;;;;5096716;28;20454;-75
2020/12/17 12:21:52;;;;;;;21.00;13.90;;;8.30;99.90;;;;;;5095677;28;20269;-75
2020/12/17 12:24:18;;;;;;;17.20;12.93;;;8.30;99.90;;;;;;5096759;28;20534;-75
2020/12/17 12:26:47;;;;;;;23.07;15.50;;;8.30;99.90;;;;;;5094481;28;20514;-75
2020/12/17 12:29:14;;;;;;;25.27;15.77;;;8.30;99.90;;;;;;5096725;28;20878;-75
2020/12/17 12:31:41;;;;;;;20.30;13.40;;;8.30;99.90;;;;;;5101780;28;20442;-74
2020/12/17 12:34:09;;;;;;;23.10;14.40;;;8.40;99.90;;;;;;5094223;28;20954;-75
2020/12/17 12:36:35;;;;;;;18.20;13.27;;;8.30;99.90;;;;;;5094304;28;20447;-75
2020/12/17 12:39:01;;;;;;;19.50;14.40;;;8.40;99.90;;;;;;5093505;28;20454;-75
2020/12/17 12:41:30;;;;;;;18.03;14.27;;;8.40;99.90;;;;;;5096460;28;20834;-75